sensor_id;sensor_type;location;lat;lon;timestamp;P1;durP1;ratioP1;P2;durP2;ratioP2
30149;SDS011;16962;48.646;9.026;2023-11-19T00:02:33;10.60;;;8.52;;
30149;SDS011;16962;48.646;9.026;2023-11-19T00:05:21;14.00;;;9.80;;
30149;SDS011;16962;48.646;9.026;2023-11-19T00:08:08;14.07;;;9.70;;
30149;SDS011;16962;48.646;9.026;2023-11-19T00:10:55;11.93;;;9.68;;
30149;SDS011;16962;48.646;9.026;2023-11-19T00:13:43;13.70;;;9.57;;
30149;SDS011;16962;48.646;9.026;2023-11-19T00:16:30;15.93;;;9.70;;
30149;SDS011;16962;48.646;9.026;2023-11-19T00:19:19;12.52;;;9.07;;
30149;SDS011;16962;48.646;9.026;2023-11-19T00:22:06;13.93;;;9.40;;
30149;SDS011;16962;48.646;9.026;2023-11-19T00:24:55;17.02;;;9.50;;
30149;SDS011;16962;48.646;9.026;2023-11-19T00:27:43;16.08;;;9.52;;
30149;SDS011;16962;48.646;9.026;2023-11-19T00:30:33;12.40;;;8.50;;
30149;SDS011;16962;48.646;9.026;2023-11-19T00:33:25;13.27;;;9.30;;
30149;SDS011;16962;48.646;9.026;2023-11-19T00:36:12;11.50;;;8.55;;
30149;SDS011;16962;48.646;9.026;2023-11-19T00:39:02;14.88;;;9.60;;
30149;SDS011;16962;48.646;9.026;2023-11-19T00:41:50;11.32;;;7.93;;
30149;SDS011;16962;48.646;9.026;2023-11-19T00:44:37;14.63;;;8.05;;
30149;SDS011;16962;48.646;9.026;2023-11-19T00:47:24;11.82;;;8.30;;
30149;SDS011;16962;48.646;9.026;2023-11-19T00:50:12;9.57;;;7.10;;
30149;SDS011;16962;48.646;9.026;2023-11-19T00:53:00;10.05;;;6.97;;
30149;SDS011;16962;48.646;9.026;2023-11-19T00:55:48;8.88;;;6.90;;
30149;SDS011;16962;48.646;9.026;2023-11-19T00:58:37;9.57;;;6.25;;
30149;SDS011;16962;48.646;9.026;2023-11-19T01:01:25;8.48;;;6.25;;
30149;SDS011;16962;48.646;9.026;2023-11-19T01:04:15;8.93;;;6.63;;
30149;SDS011;16962;48.646;9.026;2023-11-19T01:07:03;9.68;;;6.90;;
30149;SDS011;16962;48.646;9.026;2023-11-19T01:09:51;11.10;;;7.00;;
30149;SDS011;16962;48.646;9.026;2023-11-19T01:12:39;9.93;;;6.72;;
30149;SDS011;16962;48.646;9.026;2023-11-19T01:15:26;11.00;;;6.75;;
30149;SDS011;16962;48.646;9.026;2023-11-19T01:18:16;8.52;;;6.43;;
30149;SDS011;16962;48.646;9.026;2023-11-19T01:21:04;8.68;;;6.47;;
30149;SDS011;16962;48.646;9.026;2023-11-19T01:23:54;11.00;;;7.38;;
30149;SDS011;16962;48.646;9.026;2023-11-19T01:26:42;8.27;;;7.00;;
30149;SDS011;16962;48.646;9.026;2023-11-19T01:29:32;8.75;;;6.38;;
30149;SDS011;16962;48.646;9.026;2023-11-19T01:32:19;10.20;;;6.85;;
30149;SDS011;16962;48.646;9.026;2023-11-19T01:35:10;9.38;;;6.80;;
30149;SDS011;16962;48.646;9.026;2023-11-19T01:37:58;11.25;;;6.15;;
30149;SDS011;16962;48.646;9.026;2023-11-19T01:40:45;8.35;;;6.03;;
30149;SDS011;16962;48.646;9.026;2023-11-19T01:43:38;7.72;;;6.30;;
30149;SDS011;16962;48.646;9.026;2023-11-19T01:46:28;10.68;;;5.88;;
30149;SDS011;16962;48.646;9.026;2023-11-19T01:49:17;9.77;;;5.65;;
30149;SDS011;16962;48.646;9.026;2023-11-19T01:52:05;9.38;;;4.78;;
30149;SDS011;16962;48.646;9.026;2023-11-19T01:54:52;6.97;;;4.72;;
30149;SDS011;16962;48.646;9.026;2023-11-19T01:57:41;6.05;;;5.13;;
30149;SDS011;16962;48.646;9.026;2023-11-19T02:00:28;7.38;;;5.32;;
30149;SDS011;16962;48.646;9.026;2023-11-19T02:03:18;7.15;;;3.90;;
30149;SDS011;16962;48.646;9.026;2023-11-19T02:06:06;5.60;;;4.30;;
30149;SDS011;16962;48.646;9.026;2023-11-19T02:08:56;6.43;;;3.80;;
30149;SDS011;16962;48.646;9.026;2023-11-19T02:11:43;3.50;;;3.20;;
30149;SDS011;16962;48.646;9.026;2023-11-19T02:14:31;5.47;;;3.88;;
30149;SDS011;16962;48.646;9.026;2023-11-19T02:17:30;3.38;;;3.00;;
30149;SDS011;16962;48.646;9.026;2023-11-19T02:20:21;4.80;;;2.85;;
30149;SDS011;16962;48.646;9.026;2023-11-19T02:23:08;4.82;;;2.80;;
30149;SDS011;16962;48.646;9.026;2023-11-19T02:28:55;3.95;;;2.47;;
30149;SDS011;16962;48.646;9.026;2023-11-19T02:31:43;3.72;;;2.33;;
30149;SDS011;16962;48.646;9.026;2023-11-19T02:34:30;2.38;;;2.03;;
30149;SDS011;16962;48.646;9.026;2023-11-19T02:37:17;2.47;;;1.60;;
30149;SDS011;16962;48.646;9.026;2023-11-19T02:40:06;1.98;;;1.48;;
30149;SDS011;16962;48.646;9.026;2023-11-19T02:42:55;3.58;;;1.95;;
30149;SDS011;16962;48.646;9.026;2023-11-19T02:45:43;2.75;;;1.52;;
30149;SDS011;16962;48.646;9.026;2023-11-19T02:48:33;1.30;;;1.15;;
30149;SDS011;16962;48.646;9.026;2023-11-19T02:51:22;0.90;;;0.90;;
30149;SDS011;16962;48.646;9.026;2023-11-19T02:54:11;0.98;;;0.98;;
30149;SDS011;16962;48.646;9.026;2023-11-19T02:56:59;1.15;;;0.85;;
30149;SDS011;16962;48.646;9.026;2023-11-19T02:59:48;1.02;;;0.90;;
30149;SDS011;16962;48.646;9.026;2023-11-19T03:02:40;1.73;;;0.90;;
30149;SDS011;16962;48.646;9.026;2023-11-19T03:05:34;1.00;;;0.90;;
30149;SDS011;16962;48.646;9.026;2023-11-19T03:08:22;1.50;;;0.90;;
30149;SDS011;16962;48.646;9.026;2023-11-19T03:11:09;1.27;;;0.88;;
30149;SDS011;16962;48.646;9.026;2023-11-19T03:13:56;1.42;;;0.75;;
30149;SDS011;16962;48.646;9.026;2023-11-19T03:16:46;0.60;;;0.60;;
30149;SDS011;16962;48.646;9.026;2023-11-19T03:19:34;0.98;;;0.88;;
30149;SDS011;16962;48.646;9.026;2023-11-19T03:22:21;1.55;;;0.82;;
30149;SDS011;16962;48.646;9.026;2023-11-19T03:25:08;0.98;;;0.90;;
30149;SDS011;16962;48.646;9.026;2023-11-19T03:27:56;1.80;;;0.80;;
30149;SDS011;16962;48.646;9.026;2023-11-19T03:30:45;1.50;;;0.80;;
30149;SDS011;16962;48.646;9.026;2023-11-19T03:33:32;1.35;;;0.80;;
30149;SDS011;16962;48.646;9.026;2023-11-19T03:36:22;1.50;;;0.80;;
30149;SDS011;16962;48.646;9.026;2023-11-19T03:39:14;1.95;;;1.05;;
30149;SDS011;16962;48.646;9.026;2023-11-19T03:42:01;2.58;;;1.17;;
30149;SDS011;16962;48.646;9.026;2023-11-19T03:44:50;0.95;;;0.90;;
30149;SDS011;16962;48.646;9.026;2023-11-19T03:47:39;1.08;;;0.80;;
30149;SDS011;16962;48.646;9.026;2023-11-19T03:50:26;1.10;;;1.00;;
30149;SDS011;16962;48.646;9.026;2023-11-19T03:53:13;3.97;;;1.13;;
30149;SDS011;16962;48.646;9.026;2023-11-19T03:56:06;0.63;;;0.60;;
30149;SDS011;16962;48.646;9.026;2023-11-19T03:58:58;0.80;;;0.80;;
30149;SDS011;16962;48.646;9.026;2023-11-19T04:01:47;0.90;;;0.90;;
30149;SDS011;16962;48.646;9.026;2023-11-19T04:04:35;1.00;;;0.90;;
30149;SDS011;16962;48.646;9.026;2023-11-19T04:07:22;1.45;;;1.35;;
30149;SDS011;16962;48.646;9.026;2023-11-19T04:10:09;2.40;;;1.30;;
30149;SDS011;16962;48.646;9.026;2023-11-19T04:12:57;1.15;;;1.05;;
30149;SDS011;16962;48.646;9.026;2023-11-19T04:15:45;0.70;;;0.70;;
30149;SDS011;16962;48.646;9.026;2023-11-19T04:18:34;0.77;;;0.60;;
30149;SDS011;16962;48.646;9.026;2023-11-19T04:21:27;0.70;;;0.70;;
30149;SDS011;16962;48.646;9.026;2023-11-19T04:24:17;3.50;;;0.70;;
30149;SDS011;16962;48.646;9.026;2023-11-19T04:27:04;0.60;;;0.60;;
30149;SDS011;16962;48.646;9.026;2023-11-19T04:29:53;0.60;;;0.60;;
30149;SDS011;16962;48.646;9.026;2023-11-19T04:32:43;3.45;;;0.68;;
30149;SDS011;16962;48.646;9.026;2023-11-19T04:35:30;0.55;;;0.55;;
30149;SDS011;16962;48.646;9.026;2023-11-19T04:38:21;2.25;;;0.95;;
30149;SDS011;16962;48.646;9.026;2023-11-19T04:41:08;0.70;;;0.70;;
30149;SDS011;16962;48.646;9.026;2023-11-19T04:43:56;1.10;;;1.00;;
30149;SDS011;16962;48.646;9.026;2023-11-19T04:46:46;0.93;;;0.80;;
30149;SDS011;16962;48.646;9.026;2023-11-19T04:49:39;1.00;;;1.00;;
30149;SDS011;16962;48.646;9.026;2023-11-19T04:52:31;1.05;;;0.95;;
30149;SDS011;16962;48.646;9.026;2023-11-19T04:55:19;1.40;;;1.30;;
30149;SDS011;16962;48.646;9.026;2023-11-19T04:58:09;0.90;;;0.90;;
30149;SDS011;16962;48.646;9.026;2023-11-19T05:00:56;1.52;;;1.42;;
30149;SDS011;16962;48.646;9.026;2023-11-19T05:03:51;2.85;;;1.77;;
30149;SDS011;16962;48.646;9.026;2023-11-19T05:06:41;1.30;;;1.20;;
30149;SDS011;16962;48.646;9.026;2023-11-19T05:09:28;1.70;;;1.50;;
30149;SDS011;16962;48.646;9.026;2023-11-19T05:12:17;1.60;;;1.10;;
30149;SDS011;16962;48.646;9.026;2023-11-19T05:15:04;2.75;;;1.10;;
30149;SDS011;16962;48.646;9.026;2023-11-19T05:17:54;2.50;;;1.30;;
30149;SDS011;16962;48.646;9.026;2023-11-19T05:20:43;1.10;;;1.10;;
30149;SDS011;16962;48.646;9.026;2023-11-19T05:23:32;1.35;;;1.20;;
30149;SDS011;16962;48.646;9.026;2023-11-19T05:26:23;2.53;;;1.10;;
30149;SDS011;16962;48.646;9.026;2023-11-19T05:29:11;2.78;;;1.02;;
30149;SDS011;16962;48.646;9.026;2023-11-19T05:32:05;1.25;;;1.02;;
30149;SDS011;16962;48.646;9.026;2023-11-19T05:34:53;1.50;;;1.40;;
30149;SDS011;16962;48.646;9.026;2023-11-19T05:37:42;2.60;;;1.13;;
30149;SDS011;16962;48.646;9.026;2023-11-19T05:40:34;1.05;;;1.00;;
30149;SDS011;16962;48.646;9.026;2023-11-19T05:43:24;5.30;;;1.20;;
30149;SDS011;16962;48.646;9.026;2023-11-19T05:46:11;1.00;;;1.00;;
30149;SDS011;16962;48.646;9.026;2023-11-19T05:49:02;2.25;;;1.05;;
30149;SDS011;16962;48.646;9.026;2023-11-19T05:51:50;1.05;;;1.05;;
30149;SDS011;16962;48.646;9.026;2023-11-19T05:54:42;1.00;;;1.00;;
30149;SDS011;16962;48.646;9.026;2023-11-19T05:57:38;2.67;;;0.93;;
30149;SDS011;16962;48.646;9.026;2023-11-19T06:00:34;0.90;;;0.90;;
30149;SDS011;16962;48.646;9.026;2023-11-19T06:03:24;1.13;;;0.90;;
30149;SDS011;16962;48.646;9.026;2023-11-19T06:06:11;1.38;;;1.10;;
30149;SDS011;16962;48.646;9.026;2023-11-19T06:08:59;0.90;;;0.90;;
30149;SDS011;16962;48.646;9.026;2023-11-19T06:11:59;1.13;;;0.98;;
30149;SDS011;16962;48.646;9.026;2023-11-19T06:14:49;1.67;;;1.25;;
30149;SDS011;16962;48.646;9.026;2023-11-19T06:17:36;1.80;;;1.50;;
30149;SDS011;16962;48.646;9.026;2023-11-19T06:20:26;3.67;;;1.10;;
30149;SDS011;16962;48.646;9.026;2023-11-19T06:23:29;1.23;;;1.13;;
30149;SDS011;16962;48.646;9.026;2023-11-19T06:26:16;1.40;;;1.30;;
30149;SDS011;16962;48.646;9.026;2023-11-19T06:29:04;3.03;;;1.60;;
30149;SDS011;16962;48.646;9.026;2023-11-19T06:31:54;1.90;;;1.70;;
30149;SDS011;16962;48.646;9.026;2023-11-19T06:34:42;1.40;;;1.30;;
30149;SDS011;16962;48.646;9.026;2023-11-19T06:37:32;1.40;;;1.10;;
30149;SDS011;16962;48.646;9.026;2023-11-19T06:40:19;1.58;;;1.40;;
30149;SDS011;16962;48.646;9.026;2023-11-19T06:43:07;1.52;;;1.40;;
30149;SDS011;16962;48.646;9.026;2023-11-19T06:45:57;1.20;;;1.20;;
30149;SDS011;16962;48.646;9.026;2023-11-19T06:48:44;1.20;;;1.10;;
30149;SDS011;16962;48.646;9.026;2023-11-19T06:51:34;1.98;;;1.58;;
30149;SDS011;16962;48.646;9.026;2023-11-19T06:54:24;1.70;;;1.42;;
30149;SDS011;16962;48.646;9.026;2023-11-19T06:57:12;4.22;;;1.90;;
30149;SDS011;16962;48.646;9.026;2023-11-19T06:59:59;1.70;;;1.60;;
30149;SDS011;16962;48.646;9.026;2023-11-19T07:05:42;1.73;;;1.50;;
30149;SDS011;16962;48.646;9.026;2023-11-19T07:08:31;2.67;;;1.40;;
30149;SDS011;16962;48.646;9.026;2023-11-19T07:11:21;3.58;;;1.20;;
30149;SDS011;16962;48.646;9.026;2023-11-19T07:14:08;4.35;;;1.27;;
30149;SDS011;16962;48.646;9.026;2023-11-19T07:16:58;2.20;;;1.60;;
30149;SDS011;16962;48.646;9.026;2023-11-19T07:19:47;1.75;;;1.50;;
30149;SDS011;16962;48.646;9.026;2023-11-19T07:22:39;2.40;;;1.20;;
30149;SDS011;16962;48.646;9.026;2023-11-19T07:25:26;2.38;;;2.00;;
30149;SDS011;16962;48.646;9.026;2023-11-19T07:28:16;2.35;;;1.20;;
30149;SDS011;16962;48.646;9.026;2023-11-19T07:31:04;1.20;;;1.10;;
30149;SDS011;16962;48.646;9.026;2023-11-19T07:33:51;2.45;;;1.48;;
30149;SDS011;16962;48.646;9.026;2023-11-19T07:36:39;1.55;;;1.05;;
30149;SDS011;16962;48.646;9.026;2023-11-19T07:39:29;1.20;;;1.10;;
30149;SDS011;16962;48.646;9.026;2023-11-19T07:42:16;1.00;;;1.00;;
30149;SDS011;16962;48.646;9.026;2023-11-19T07:45:03;0.73;;;0.73;;
30149;SDS011;16962;48.646;9.026;2023-11-19T07:47:52;2.70;;;1.00;;
30149;SDS011;16962;48.646;9.026;2023-11-19T07:50:42;1.30;;;1.00;;
30149;SDS011;16962;48.646;9.026;2023-11-19T07:53:36;1.08;;;0.80;;
30149;SDS011;16962;48.646;9.026;2023-11-19T07:56:25;0.73;;;0.73;;
30149;SDS011;16962;48.646;9.026;2023-11-19T07:59:14;1.10;;;1.00;;
30149;SDS011;16962;48.646;9.026;2023-11-19T08:02:02;1.63;;;1.00;;
30149;SDS011;16962;48.646;9.026;2023-11-19T08:04:52;1.20;;;0.98;;
30149;SDS011;16962;48.646;9.026;2023-11-19T08:07:42;2.33;;;1.10;;
30149;SDS011;16962;48.646;9.026;2023-11-19T08:10:29;1.70;;;1.00;;
30149;SDS011;16962;48.646;9.026;2023-11-19T08:13:20;1.23;;;0.93;;
30149;SDS011;16962;48.646;9.026;2023-11-19T08:16:09;1.25;;;0.75;;
30149;SDS011;16962;48.646;9.026;2023-11-19T08:18:57;1.02;;;0.70;;
30149;SDS011;16962;48.646;9.026;2023-11-19T08:21:47;0.40;;;0.40;;
30149;SDS011;16962;48.646;9.026;2023-11-19T08:24:35;0.93;;;0.63;;
30149;SDS011;16962;48.646;9.026;2023-11-19T08:27:22;2.05;;;0.70;;
30149;SDS011;16962;48.646;9.026;2023-11-19T08:30:13;1.65;;;0.70;;
30149;SDS011;16962;48.646;9.026;2023-11-19T08:33:01;1.00;;;0.60;;
30149;SDS011;16962;48.646;9.026;2023-11-19T08:35:52;1.38;;;0.70;;
30149;SDS011;16962;48.646;9.026;2023-11-19T08:38:41;2.50;;;0.70;;
30149;SDS011;16962;48.646;9.026;2023-11-19T08:41:29;1.10;;;0.60;;
30149;SDS011;16962;48.646;9.026;2023-11-19T08:44:17;2.58;;;0.68;;
30149;SDS011;16962;48.646;9.026;2023-11-19T08:47:06;1.60;;;1.08;;
30149;SDS011;16962;48.646;9.026;2023-11-19T08:49:53;1.55;;;1.40;;
30149;SDS011;16962;48.646;9.026;2023-11-19T08:52:49;2.08;;;1.70;;
30149;SDS011;16962;48.646;9.026;2023-11-19T08:55:39;1.58;;;0.90;;
30149;SDS011;16962;48.646;9.026;2023-11-19T08:58:30;1.27;;;0.70;;
30149;SDS011;16962;48.646;9.026;2023-11-19T09:01:21;5.70;;;1.52;;
30149;SDS011;16962;48.646;9.026;2023-11-19T09:04:08;3.33;;;0.75;;
30149;SDS011;16962;48.646;9.026;2023-11-19T09:06:57;1.20;;;0.73;;
30149;SDS011;16962;48.646;9.026;2023-11-19T09:09:44;2.92;;;0.95;;
30149;SDS011;16962;48.646;9.026;2023-11-19T09:12:33;1.17;;;1.08;;
30149;SDS011;16962;48.646;9.026;2023-11-19T09:15:21;1.30;;;0.73;;
30149;SDS011;16962;48.646;9.026;2023-11-19T09:26:38;0.90;;;0.80;;
30149;SDS011;16962;48.646;9.026;2023-11-19T09:51:33;1.17;;;0.95;;
30149;SDS011;16962;48.646;9.026;2023-11-19T10:07:49;2.03;;;0.68;;
30149;SDS011;16962;48.646;9.026;2023-11-19T10:10:39;0.65;;;0.65;;
30149;SDS011;16962;48.646;9.026;2023-11-19T10:13:26;1.50;;;0.90;;
30149;SDS011;16962;48.646;9.026;2023-11-19T10:16:18;1.23;;;0.70;;
30149;SDS011;16962;48.646;9.026;2023-11-19T10:19:05;0.73;;;0.70;;
30149;SDS011;16962;48.646;9.026;2023-11-19T10:21:52;1.65;;;0.90;;
30149;SDS011;16962;48.646;9.026;2023-11-19T10:24:40;5.55;;;3.20;;
30149;SDS011;16962;48.646;9.026;2023-11-19T10:27:35;2.25;;;0.60;;
30149;SDS011;16962;48.646;9.026;2023-11-19T10:30:23;4.00;;;1.00;;
30149;SDS011;16962;48.646;9.026;2023-11-19T10:33:13;0.95;;;0.80;;
30149;SDS011;16962;48.646;9.026;2023-11-19T10:36:07;2.05;;;0.60;;
30149;SDS011;16962;48.646;9.026;2023-11-19T10:38:56;1.10;;;0.60;;
30149;SDS011;16962;48.646;9.026;2023-11-19T10:41:44;1.55;;;1.00;;
30149;SDS011;16962;48.646;9.026;2023-11-19T10:44:36;2.58;;;0.70;;
30149;SDS011;16962;48.646;9.026;2023-11-19T10:47:27;3.20;;;0.80;;
30149;SDS011;16962;48.646;9.026;2023-11-19T10:50:23;0.52;;;0.50;;
30149;SDS011;16962;48.646;9.026;2023-11-19T10:53:12;0.57;;;0.57;;
30149;SDS011;16962;48.646;9.026;2023-11-19T10:56:02;2.33;;;0.60;;
30149;SDS011;16962;48.646;9.026;2023-11-19T10:58:57;3.40;;;1.15;;
30149;SDS011;16962;48.646;9.026;2023-11-19T11:02:09;2.50;;;0.70;;
30149;SDS011;16962;48.646;9.026;2023-11-19T11:05:04;0.68;;;0.63;;
30149;SDS011;16962;48.646;9.026;2023-11-19T11:07:55;2.72;;;0.70;;
30149;SDS011;16962;48.646;9.026;2023-11-19T11:10:53;1.45;;;0.63;;
30149;SDS011;16962;48.646;9.026;2023-11-19T11:13:43;1.27;;;0.70;;
30149;SDS011;16962;48.646;9.026;2023-11-19T11:16:36;3.58;;;0.65;;
30149;SDS011;16962;48.646;9.026;2023-11-19T11:19:28;2.10;;;0.75;;
30149;SDS011;16962;48.646;9.026;2023-11-19T11:22:16;2.53;;;0.70;;
30149;SDS011;16962;48.646;9.026;2023-11-19T11:25:23;2.15;;;0.70;;
30149;SDS011;16962;48.646;9.026;2023-11-19T11:40:21;2.75;;;0.80;;
30149;SDS011;16962;48.646;9.026;2023-11-19T11:49:26;1.10;;;0.50;;
30149;SDS011;16962;48.646;9.026;2023-11-19T11:52:14;1.85;;;0.80;;
30149;SDS011;16962;48.646;9.026;2023-11-19T11:55:04;0.98;;;0.70;;
30149;SDS011;16962;48.646;9.026;2023-11-19T11:57:55;2.35;;;0.80;;
30149;SDS011;16962;48.646;9.026;2023-11-19T12:00:42;1.17;;;0.68;;
30149;SDS011;16962;48.646;9.026;2023-11-19T12:03:30;4.20;;;0.80;;
30149;SDS011;16962;48.646;9.026;2023-11-19T12:06:21;3.03;;;1.42;;
30149;SDS011;16962;48.646;9.026;2023-11-19T12:09:11;3.03;;;0.77;;
30149;SDS011;16962;48.646;9.026;2023-11-19T12:15:02;2.08;;;0.70;;
30149;SDS011;16962;48.646;9.026;2023-11-19T12:27:23;8.63;;;1.08;;
30149;SDS011;16962;48.646;9.026;2023-11-19T12:30:11;2.78;;;0.75;;
30149;SDS011;16962;48.646;9.026;2023-11-19T12:32:59;2.30;;;0.68;;
30149;SDS011;16962;48.646;9.026;2023-11-19T12:35:49;2.70;;;1.17;;
30149;SDS011;16962;48.646;9.026;2023-11-19T12:38:36;2.92;;;0.70;;
30149;SDS011;16962;48.646;9.026;2023-11-19T12:41:24;2.92;;;1.10;;
30149;SDS011;16962;48.646;9.026;2023-11-19T12:44:12;1.92;;;0.70;;
30149;SDS011;16962;48.646;9.026;2023-11-19T12:47:03;3.05;;;1.50;;
30149;SDS011;16962;48.646;9.026;2023-11-19T12:49:57;2.37;;;1.17;;
30149;SDS011;16962;48.646;9.026;2023-11-19T12:52:57;2.78;;;0.93;;
30149;SDS011;16962;48.646;9.026;2023-11-19T12:55:48;1.58;;;1.20;;
30149;SDS011;16962;48.646;9.026;2023-11-19T12:58:36;4.00;;;0.73;;
30149;SDS011;16962;48.646;9.026;2023-11-19T13:01:25;1.90;;;0.70;;
30149;SDS011;16962;48.646;9.026;2023-11-19T13:04:20;3.75;;;1.83;;
30149;SDS011;16962;48.646;9.026;2023-11-19T13:07:08;4.10;;;1.20;;
30149;SDS011;16962;48.646;9.026;2023-11-19T13:10:04;1.60;;;1.10;;
30149;SDS011;16962;48.646;9.026;2023-11-19T13:13:03;2.08;;;0.75;;
30149;SDS011;16962;48.646;9.026;2023-11-19T13:15:52;1.70;;;1.00;;
30149;SDS011;16962;48.646;9.026;2023-11-19T13:21:23;1.20;;;0.50;;
30149;SDS011;16962;48.646;9.026;2023-11-19T13:24:11;3.75;;;1.60;;
30149;SDS011;16962;48.646;9.026;2023-11-19T13:27:01;2.17;;;1.15;;
30149;SDS011;16962;48.646;9.026;2023-11-19T13:29:49;1.52;;;1.00;;
30149;SDS011;16962;48.646;9.026;2023-11-19T13:32:36;1.38;;;0.70;;
30149;SDS011;16962;48.646;9.026;2023-11-19T13:35:27;1.90;;;1.00;;
30149;SDS011;16962;48.646;9.026;2023-11-19T13:41:05;4.43;;;1.58;;
30149;SDS011;16962;48.646;9.026;2023-11-19T13:43:53;2.85;;;1.25;;
30149;SDS011;16962;48.646;9.026;2023-11-19T13:46:44;2.85;;;0.98;;
30149;SDS011;16962;48.646;9.026;2023-11-19T13:49:32;3.95;;;1.60;;
30149;SDS011;16962;48.646;9.026;2023-11-19T13:52:22;1.25;;;0.95;;
30149;SDS011;16962;48.646;9.026;2023-11-19T13:55:10;3.58;;;1.10;;
30149;SDS011;16962;48.646;9.026;2023-11-19T13:57:59;1.30;;;0.70;;
30149;SDS011;16962;48.646;9.026;2023-11-19T14:00:48;2.40;;;0.88;;
30149;SDS011;16962;48.646;9.026;2023-11-19T14:03:37;2.30;;;0.80;;
30149;SDS011;16962;48.646;9.026;2023-11-19T14:06:25;1.13;;;0.80;;
30149;SDS011;16962;48.646;9.026;2023-11-19T14:09:12;2.58;;;1.00;;
30149;SDS011;16962;48.646;9.026;2023-11-19T14:12:00;1.63;;;0.77;;
30149;SDS011;16962;48.646;9.026;2023-11-19T14:14:51;1.65;;;0.60;;
30149;SDS011;16962;48.646;9.026;2023-11-19T14:17:39;1.05;;;0.70;;
30149;SDS011;16962;48.646;9.026;2023-11-19T14:20:28;0.73;;;0.63;;
30149;SDS011;16962;48.646;9.026;2023-11-19T14:23:16;1.25;;;0.77;;
30149;SDS011;16962;48.646;9.026;2023-11-19T14:26:04;1.65;;;0.85;;
30149;SDS011;16962;48.646;9.026;2023-11-19T14:28:58;1.10;;;0.70;;
30149;SDS011;16962;48.646;9.026;2023-11-19T14:31:45;1.00;;;0.57;;
30149;SDS011;16962;48.646;9.026;2023-11-19T14:34:33;0.88;;;0.70;;
30149;SDS011;16962;48.646;9.026;2023-11-19T14:37:23;1.20;;;0.60;;
30149;SDS011;16962;48.646;9.026;2023-11-19T14:40:13;0.98;;;0.63;;
30149;SDS011;16962;48.646;9.026;2023-11-19T14:43:01;2.33;;;1.10;;
30149;SDS011;16962;48.646;9.026;2023-11-19T14:45:49;2.95;;;1.60;;
30149;SDS011;16962;48.646;9.026;2023-11-19T14:48:37;1.48;;;1.00;;
30149;SDS011;16962;48.646;9.026;2023-11-19T14:51:27;1.70;;;0.80;;
30149;SDS011;16962;48.646;9.026;2023-11-19T14:54:16;4.03;;;1.60;;
30149;SDS011;16962;48.646;9.026;2023-11-19T14:57:07;4.03;;;1.60;;
30149;SDS011;16962;48.646;9.026;2023-11-19T14:59:55;2.45;;;0.77;;
30149;SDS011;16962;48.646;9.026;2023-11-19T15:02:42;0.80;;;0.80;;
30149;SDS011;16962;48.646;9.026;2023-11-19T15:05:30;2.10;;;0.70;;
30149;SDS011;16962;48.646;9.026;2023-11-19T15:08:18;1.65;;;0.82;;
30149;SDS011;16962;48.646;9.026;2023-11-19T15:11:07;2.58;;;1.00;;
30149;SDS011;16962;48.646;9.026;2023-11-19T15:13:58;2.03;;;1.05;;
30149;SDS011;16962;48.646;9.026;2023-11-19T15:16:47;2.42;;;1.30;;
30149;SDS011;16962;48.646;9.026;2023-11-19T15:19:37;3.17;;;1.30;;
30149;SDS011;16962;48.646;9.026;2023-11-19T15:22:25;7.60;;;3.28;;
30149;SDS011;16962;48.646;9.026;2023-11-19T15:25:15;9.75;;;4.45;;
30149;SDS011;16962;48.646;9.026;2023-11-19T15:28:03;1.50;;;1.00;;
30149;SDS011;16962;48.646;9.026;2023-11-19T15:30:51;4.05;;;1.95;;
30149;SDS011;16962;48.646;9.026;2023-11-19T15:33:38;3.17;;;1.55;;
30149;SDS011;16962;48.646;9.026;2023-11-19T15:36:28;2.33;;;1.30;;
30149;SDS011;16962;48.646;9.026;2023-11-19T15:39:15;2.50;;;1.38;;
30149;SDS011;16962;48.646;9.026;2023-11-19T15:42:05;1.63;;;1.30;;
30149;SDS011;16962;48.646;9.026;2023-11-19T15:44:53;2.88;;;1.33;;
30149;SDS011;16962;48.646;9.026;2023-11-19T15:47:40;6.35;;;1.40;;
30149;SDS011;16962;48.646;9.026;2023-11-19T15:50:29;1.83;;;1.05;;
30149;SDS011;16962;48.646;9.026;2023-11-19T15:53:16;3.47;;;0.90;;
30149;SDS011;16962;48.646;9.026;2023-11-19T15:56:05;1.48;;;0.80;;
30149;SDS011;16962;48.646;9.026;2023-11-19T15:58:55;2.85;;;0.90;;
30149;SDS011;16962;48.646;9.026;2023-11-19T16:01:45;4.15;;;1.00;;
30149;SDS011;16962;48.646;9.026;2023-11-19T16:04:36;1.98;;;1.00;;
30149;SDS011;16962;48.646;9.026;2023-11-19T16:07:26;4.25;;;1.60;;
30149;SDS011;16962;48.646;9.026;2023-11-19T16:10:18;3.28;;;1.35;;
30149;SDS011;16962;48.646;9.026;2023-11-19T16:13:12;2.05;;;1.40;;
30149;SDS011;16962;48.646;9.026;2023-11-19T16:16:02;6.35;;;1.27;;
30149;SDS011;16962;48.646;9.026;2023-11-19T16:18:49;3.20;;;1.40;;
30149;SDS011;16962;48.646;9.026;2023-11-19T16:21:39;3.13;;;1.83;;
30149;SDS011;16962;48.646;9.026;2023-11-19T16:24:27;2.13;;;1.42;;
30149;SDS011;16962;48.646;9.026;2023-11-19T16:27:15;6.13;;;2.88;;
30149;SDS011;16962;48.646;9.026;2023-11-19T16:30:08;6.15;;;2.50;;
30149;SDS011;16962;48.646;9.026;2023-11-19T16:32:58;10.32;;;4.10;;
30149;SDS011;16962;48.646;9.026;2023-11-19T16:35:57;5.22;;;1.75;;
30149;SDS011;16962;48.646;9.026;2023-11-19T16:38:45;1.70;;;1.20;;
30149;SDS011;16962;48.646;9.026;2023-11-19T16:41:35;2.58;;;1.40;;
30149;SDS011;16962;48.646;9.026;2023-11-19T16:44:29;3.55;;;1.70;;
30149;SDS011;16962;48.646;9.026;2023-11-19T16:47:19;3.85;;;2.25;;
30149;SDS011;16962;48.646;9.026;2023-11-19T16:50:08;5.03;;;1.75;;
30149;SDS011;16962;48.646;9.026;2023-11-19T16:52:59;3.92;;;1.75;;
30149;SDS011;16962;48.646;9.026;2023-11-19T16:55:48;3.47;;;1.75;;
30149;SDS011;16962;48.646;9.026;2023-11-19T16:58:36;3.90;;;1.90;;
30149;SDS011;16962;48.646;9.026;2023-11-19T17:01:28;4.05;;;2.00;;
30149;SDS011;16962;48.646;9.026;2023-11-19T17:04:16;6.10;;;3.30;;
30149;SDS011;16962;48.646;9.026;2023-11-19T17:07:04;4.10;;;2.50;;
30149;SDS011;16962;48.646;9.026;2023-11-19T17:09:52;3.67;;;2.45;;
30149;SDS011;16962;48.646;9.026;2023-11-19T17:12:42;4.53;;;1.88;;
30149;SDS011;16962;48.646;9.026;2023-11-19T17:15:30;5.55;;;1.52;;
30149;SDS011;16962;48.646;9.026;2023-11-19T17:18:18;7.38;;;2.10;;
30149;SDS011;16962;48.646;9.026;2023-11-19T17:21:06;7.40;;;3.28;;
30149;SDS011;16962;48.646;9.026;2023-11-19T17:23:54;4.88;;;2.05;;
30149;SDS011;16962;48.646;9.026;2023-11-19T17:26:41;7.05;;;3.28;;
30149;SDS011;16962;48.646;9.026;2023-11-19T17:29:31;4.68;;;2.13;;
30149;SDS011;16962;48.646;9.026;2023-11-19T17:32:21;5.95;;;2.10;;
30149;SDS011;16962;48.646;9.026;2023-11-19T17:35:09;6.55;;;3.88;;
30149;SDS011;16962;48.646;9.026;2023-11-19T17:37:56;7.65;;;3.03;;
30149;SDS011;16962;48.646;9.026;2023-11-19T17:40:44;7.93;;;3.67;;
30149;SDS011;16962;48.646;9.026;2023-11-19T17:43:34;7.63;;;3.17;;
30149;SDS011;16962;48.646;9.026;2023-11-19T17:46:21;5.57;;;2.50;;
30149;SDS011;16962;48.646;9.026;2023-11-19T17:49:10;3.88;;;1.98;;
30149;SDS011;16962;48.646;9.026;2023-11-19T17:52:00;7.93;;;3.30;;
30149;SDS011;16962;48.646;9.026;2023-11-19T17:54:52;9.85;;;3.40;;
30149;SDS011;16962;48.646;9.026;2023-11-19T17:57:40;7.35;;;3.65;;
30149;SDS011;16962;48.646;9.026;2023-11-19T18:00:32;40.70;;;17.07;;
30149;SDS011;16962;48.646;9.026;2023-11-19T18:03:19;25.00;;;11.18;;
30149;SDS011;16962;48.646;9.026;2023-11-19T18:06:14;17.55;;;7.82;;
30149;SDS011;16962;48.646;9.026;2023-11-19T18:09:04;18.70;;;9.15;;
30149;SDS011;16962;48.646;9.026;2023-11-19T18:11:53;8.38;;;3.50;;
30149;SDS011;16962;48.646;9.026;2023-11-19T18:14:52;8.52;;;4.53;;
30149;SDS011;16962;48.646;9.026;2023-11-19T18:17:41;8.35;;;5.30;;
30149;SDS011;16962;48.646;9.026;2023-11-19T18:20:30;8.32;;;3.85;;
30149;SDS011;16962;48.646;9.026;2023-11-19T18:23:18;7.55;;;3.30;;
30149;SDS011;16962;48.646;9.026;2023-11-19T18:26:06;5.45;;;3.67;;